createdAt,value
2023-01-13T00:04:59.593Z,101480.41
2023-01-13T00:10:05.354Z,101466.03
2023-01-13T00:15:10.792Z,101473.31
2023-01-13T00:20:14.455Z,101458.06
2023-01-13T00:25:19.777Z,101468.78
2023-01-13T00:30:23.383Z,101460.19
2023-01-13T00:35:27.288Z,101454.75
2023-01-13T00:40:33.302Z,101448.63
2023-01-13T00:45:36.905Z,101453.34
2023-01-13T00:50:40.506Z,101443.81
2023-01-13T00:55:45.755Z,101427.28
2023-01-13T01:00:49.416Z,101445.84
2023-01-13T01:05:53.092Z,101425.94
2023-01-13T01:11:05.337Z,101440.94
2023-01-13T01:16:11.059Z,101431.38
2023-01-13T01:21:15.164Z,101415.72
2023-01-13T01:26:22.503Z,101423.78
2023-01-13T01:31:28.294Z,101429.84
2023-01-13T01:36:32.039Z,101430.47
2023-01-13T01:41:37.927Z,101425.03
2023-01-13T01:46:41.649Z,101431.91
2023-01-13T01:51:49.523Z,101448.63
2023-01-13T01:56:55.765Z,101448.44
2023-01-13T02:01:59.801Z,101445.63
2023-01-13T02:07:04.589Z,101430.53
2023-01-13T02:12:10.596Z,101454.25
2023-01-13T02:17:27.107Z,101443.59
2023-01-13T02:22:56.718Z,101444.50
2023-01-13T02:28:22.169Z,101448.97
2023-01-13T02:33:42.098Z,101451.78
2023-01-13T02:38:52.236Z,101443.81
2023-01-13T02:44:01.743Z,101445.66
2023-01-13T02:49:11.042Z,101441.28
2023-01-13T02:54:18.138Z,101450.06
2023-01-13T02:59:22.781Z,101435.41
2023-01-13T03:04:50.840Z,101415.34
2023-01-13T03:10:00.524Z,101396.09
2023-01-13T03:15:10.325Z,101399.63
2023-01-13T03:20:21.299Z,101392.69
2023-01-13T03:25:29.564Z,101391.88
2023-01-13T03:30:38.607Z,101385.75
2023-01-13T03:35:47.278Z,101388.59
2023-01-13T03:40:54.589Z,101403.34
2023-01-13T03:46:03.760Z,101414.69
2023-01-13T03:51:14.712Z,101402.28
2023-01-13T03:56:23.440Z,101405.72
2023-01-13T04:01:30.031Z,101403.25
2023-01-13T04:06:41.882Z,101422.53
2023-01-13T04:11:50.054Z,101422.41
2023-01-13T04:16:54.049Z,101444.34
2023-01-13T04:21:59.514Z,101440.03
2023-01-13T04:27:03.146Z,101444.44
2023-01-13T04:32:06.828Z,101453.97
2023-01-13T04:37:12.141Z,101453.91
2023-01-13T04:42:15.799Z,101440.03
2023-01-13T04:47:19.471Z,101441.72
2023-01-13T04:52:24.777Z,101449.50
2023-01-13T04:57:28.386Z,101418.63
2023-01-13T05:02:32.034Z,101427.38
2023-01-13T05:07:37.325Z,101438.72
2023-01-13T05:12:41.002Z,101431.53
2023-01-13T05:17:45.021Z,101449.09
2023-01-13T05:22:50.312Z,101435.03
2023-01-13T05:27:55.097Z,101436.91
2023-01-13T05:32:58.954Z,101435.41
2023-01-13T05:38:04.765Z,101437.03
2023-01-13T05:43:11.973Z,101444.16
2023-01-13T05:48:18.151Z,101444.31
2023-01-13T05:53:24.239Z,101454.72
2023-01-13T05:58:28.783Z,101447.41
2023-01-13T06:03:32.683Z,101437.94
2023-01-13T06:08:39.712Z,101444.81
2023-01-13T06:13:43.639Z,101450.13
2023-01-13T06:18:47.302Z,101452.84
2023-01-13T06:23:52.602Z,101439.59
2023-01-13T06:28:56.229Z,101458.81
2023-01-13T06:34:05.274Z,101458.81
2023-01-13T06:39:14.689Z,101449.91
2023-01-13T06:44:18.696Z,101463.06
2023-01-13T06:49:22.347Z,101453.38
2023-01-13T06:54:27.901Z,101452.47
2023-01-13T06:59:31.584Z,101437.53
2023-01-13T07:04:35.186Z,101443.19
2023-01-13T07:09:40.720Z,101439.13
2023-01-13T07:14:44.349Z,101443.72
2023-01-13T07:19:48.000Z,101444.81
2023-01-13T07:24:53.285Z,101452.25
2023-01-13T07:29:56.935Z,101441.91
2023-01-13T07:35:00.797Z,101435.56
2023-01-13T07:40:07.029Z,101438.66
2023-01-13T07:45:12.470Z,101447.03
2023-01-13T07:50:16.201Z,101443.34
2023-01-13T07:55:21.528Z,101437.53
2023-01-13T08:00:25.589Z,101424.41
2023-01-13T08:05:29.299Z,101472.09
2023-01-13T08:10:34.569Z,101448.91
2023-01-13T08:15:38.155Z,101455.06
2023-01-13T08:20:42.154Z,101448.09
2023-01-13T08:25:47.542Z,101442.56
2023-01-13T08:30:51.223Z,101434.41
2023-01-13T08:35:54.878Z,101417.94
2023-01-13T08:41:00.314Z,101426.34
2023-01-13T08:46:05.059Z,101440.38
2023-01-13T08:51:10.173Z,101455.13
2023-01-13T08:56:15.451Z,101435.06
2023-01-13T09:01:22.961Z,101448.53
2023-01-13T09:06:26.692Z,101463.66
2023-01-13T09:11:34.996Z,101456.59
2023-01-13T09:16:38.660Z,101406.44
2023-01-13T09:21:42.364Z,101396.88
2023-01-13T09:26:47.788Z,101392.50
2023-01-13T09:31:51.448Z,101397.81
2023-01-13T09:36:55.606Z,101363.00
2023-01-13T09:42:14.848Z,101355.81
2023-01-13T09:47:26.606Z,101361.78
2023-01-13T09:52:31.089Z,101358.03
2023-01-13T09:57:39.233Z,101359.59
2023-01-13T10:03:04.918Z,101341.00
2023-01-13T10:08:14.171Z,101348.69
2023-01-13T10:13:22.334Z,101359.72
2023-01-13T10:18:34.172Z,101363.72
2023-01-13T10:23:53.868Z,101369.00
2023-01-13T10:28:59.220Z,101376.69
2023-01-13T10:34:04.749Z,101369.59
2023-01-13T10:39:16.720Z,101395.59
2023-01-13T10:44:22.013Z,101424.78
2023-01-13T10:49:30.522Z,101397.31
2023-01-13T10:54:53.606Z,101343.69
2023-01-13T10:59:58.944Z,101330.59
2023-01-13T11:05:19.151Z,101349.00
2023-01-13T11:10:25.008Z,101320.72
2023-01-13T11:15:40.134Z,101323.31
2023-01-13T11:20:47.340Z,101313.53
2023-01-13T11:25:55.670Z,101302.81
2023-01-13T11:31:09.798Z,101287.50
2023-01-13T11:36:20.364Z,101265.13
2023-01-13T11:41:37.979Z,101244.66
2023-01-13T11:46:43.645Z,101246.22
2023-01-13T11:51:56.612Z,101244.31
2023-01-13T11:57:25.427Z,101241.22
2023-01-13T12:02:49.541Z,101227.66
2023-01-13T12:08:01.046Z,101208.91
2023-01-13T12:13:20.869Z,101188.97
2023-01-13T12:19:01.231Z,101194.00
2023-01-13T12:24:18.421Z,101193.34
2023-01-13T12:29:31.436Z,101172.19
2023-01-13T12:35:00.740Z,101200.00
2023-01-13T12:40:19.244Z,101209.63
2023-01-13T12:45:28.730Z,101189.81
2023-01-13T12:50:58.896Z,101181.84
2023-01-13T12:56:28.647Z,101211.84
2023-01-13T13:01:36.885Z,101203.69
2023-01-13T13:06:45.208Z,101172.28
2023-01-13T13:11:49.664Z,101181.56
2023-01-13T13:16:53.757Z,101179.44
2023-01-13T13:22:20.958Z,101178.91
2023-01-13T13:27:29.554Z,101170.34
2023-01-13T13:32:57.003Z,101157.25
2023-01-13T13:38:19.054Z,101162.38
2023-01-13T13:43:22.832Z,101146.94
2023-01-13T13:48:27.997Z,101137.84
2023-01-13T13:53:36.674Z,101142.53
2023-01-13T13:58:41.071Z,101139.72
2023-01-13T14:03:44.770Z,101131.00
2023-01-13T14:08:51.411Z,101147.59
2023-01-13T14:14:03.698Z,101154.13
2023-01-13T14:19:08.047Z,101169.19
2023-01-13T14:24:17.629Z,101164.13
2023-01-13T14:29:24.265Z,101160.47
2023-01-13T14:34:32.686Z,101142.63
2023-01-13T14:39:41.156Z,101121.72
2023-01-13T14:44:47.195Z,101110.38
2023-01-13T14:49:57.965Z,101109.34
2023-01-13T14:55:28.730Z,101079.03
2023-01-13T15:00:32.498Z,101073.63
2023-01-13T15:05:38.432Z,101079.47
2023-01-13T15:10:49.602Z,101087.34
2023-01-13T15:15:54.649Z,101095.16
2023-01-13T15:20:58.341Z,101110.94
2023-01-13T15:26:04.129Z,101155.53
2023-01-13T15:31:07.818Z,101152.19
2023-01-13T15:36:26.804Z,101121.50
2023-01-13T15:41:32.174Z,101128.72
2023-01-13T15:46:35.871Z,101131.44
2023-01-13T15:51:39.958Z,101126.03
2023-01-13T15:56:45.241Z,101139.16
2023-01-13T16:01:48.986Z,101149.38
2023-01-13T16:06:52.681Z,101158.03
2023-01-13T16:11:57.985Z,101168.56
2023-01-13T16:17:02.517Z,101151.06
2023-01-13T16:22:06.796Z,101175.44
2023-01-13T16:27:17.743Z,101190.34
2023-01-13T16:32:21.873Z,101217.41
2023-01-13T16:37:27.653Z,101238.25
2023-01-13T16:42:32.937Z,101238.47
2023-01-13T16:47:36.539Z,101251.34
2023-01-13T16:52:40.171Z,101250.63
2023-01-13T16:57:45.457Z,101263.53
2023-01-13T17:02:49.113Z,101244.09
2023-01-13T17:07:52.803Z,101254.41
2023-01-13T17:13:00.061Z,101263.88
2023-01-13T17:18:06.038Z,101270.91
2023-01-13T17:23:09.688Z,101271.72
2023-01-13T17:28:14.959Z,101275.44
2023-01-13T17:33:18.622Z,101276.16
2023-01-13T17:38:22.254Z,101259.50
2023-01-13T17:43:28.016Z,101268.78
2023-01-13T17:48:31.642Z,101254.56
2023-01-13T17:53:35.247Z,101256.31
2023-01-13T17:58:41.039Z,101253.63
2023-01-13T18:03:44.790Z,101255.28
2023-01-13T18:08:49.365Z,101246.38
2023-01-13T18:13:56.645Z,101269.09
2023-01-13T18:19:00.796Z,101261.66
2023-01-13T18:24:04.708Z,101271.47
2023-01-13T18:29:10.016Z,101263.41
2023-01-13T18:34:13.657Z,101264.03
2023-01-13T18:39:17.488Z,101249.16
2023-01-13T18:44:23.005Z,101242.03
2023-01-13T18:49:26.673Z,101233.28
2023-01-13T18:54:30.347Z,101248.19
2023-01-13T18:59:35.677Z,101230.69
2023-01-13T19:04:39.327Z,101244.44
2023-01-13T19:09:42.959Z,101223.91
2023-01-13T19:14:48.242Z,101208.09
2023-01-13T19:19:53.460Z,101207.00
2023-01-13T19:24:57.310Z,101210.50
2023-01-13T19:30:03.625Z,101206.78
2023-01-13T19:35:08.562Z,101206.56
2023-01-13T19:40:13.090Z,101194.03
2023-01-13T19:45:20.051Z,101193.06
2023-01-13T19:50:23.785Z,101184.44
2023-01-13T19:55:27.485Z,101183.84
2023-01-13T20:00:32.804Z,101184.19
2023-01-13T20:05:36.413Z,101163.34
2023-01-13T20:10:40.079Z,101164.59
2023-01-13T20:15:45.400Z,101125.81
2023-01-13T20:20:49.020Z,101133.63
2023-01-13T20:25:52.638Z,101133.22
2023-01-13T20:30:57.929Z,101124.84
2023-01-13T20:36:01.612Z,101131.75
2023-01-13T20:41:06.271Z,101129.66
2023-01-13T20:46:11.556Z,101121.00
2023-01-13T20:51:15.239Z,101112.13
2023-01-13T20:56:18.833Z,101097.34
2023-01-13T21:01:24.177Z,101114.72
2023-01-13T21:06:28.437Z,101102.22
2023-01-13T21:11:32.252Z,101103.06
2023-01-13T21:16:37.533Z,101094.34
2023-01-13T21:21:41.158Z,101081.59
2023-01-13T21:26:44.785Z,101092.94
2023-01-13T21:31:50.274Z,101094.00
2023-01-13T21:36:53.907Z,101085.97
2023-01-13T21:41:57.515Z,101101.59
2023-01-13T21:47:02.880Z,101094.75
2023-01-13T21:52:06.617Z,101096.59
2023-01-13T21:57:10.240Z,101106.00
2023-01-13T22:02:23.888Z,101109.81
2023-01-13T22:07:28.684Z,101104.00
2023-01-13T22:12:33.547Z,101103.66
2023-01-13T22:17:38.942Z,101104.34
2023-01-13T22:22:42.636Z,101108.38
2023-01-13T22:27:46.346Z,101114.59
2023-01-13T22:32:52.019Z,101115.53
2023-01-13T22:37:56.649Z,101124.44
2023-01-13T22:43:00.337Z,101135.59
2023-01-13T22:48:05.901Z,101139.56
2023-01-13T22:53:09.586Z,101151.69
2023-01-13T22:58:14.836Z,101168.22
2023-01-13T23:03:20.428Z,101152.63
2023-01-13T23:08:24.083Z,101156.38
2023-01-13T23:13:27.798Z,101168.97
2023-01-13T23:18:33.701Z,101177.66
2023-01-13T23:23:37.834Z,101174.34
2023-01-13T23:28:41.969Z,101171.72
2023-01-13T23:33:48.138Z,101186.97
2023-01-13T23:38:52.344Z,101192.34
2023-01-13T23:43:58.057Z,101205.47
2023-01-13T23:49:04.316Z,101199.41
2023-01-13T23:54:08.064Z,101194.41
2023-01-13T23:59:12.011Z,101219.72
